Time;durP1;ratioP1;P1;durP2;ratioP2;P2;SDS_P1;SDS_P2;PMS_P1;PMS_P2;Temp;Humidity;BMP_temperature;BMP_pressure;BME280_temperature;BME280_humidity;BME280_pressure;Samples;Min_cycle;Max_cycle;Signal;HPM_P1;HPM_P2
2023/09/29 00:00:41;;;;;;;16.65;5.55;;;16.20;99.90;;;;;;5070949;28;20037;-86
2023/09/29 00:03:08;;;;;;;14.90;4.43;;;16.20;99.90;;;;;;5057407;28;20039;-86
2023/09/29 00:05:34;;;;;;;14.13;4.13;;;16.10;99.90;;;;;;5077512;28;20517;-86
2023/09/29 00:08:00;;;;;;;14.35;4.43;;;16.10;99.90;;;;;;5061608;28;20078;-87
2023/09/29 00:10:25;;;;;;;15.35;4.60;;;16.10;99.90;;;;;;5045857;28;20047;-86
2023/09/29 00:12:51;;;;;;;16.00;4.63;;;16.10;99.90;;;;;;5076356;28;20041;-86
2023/09/29 00:15:18;;;;;;;16.02;4.95;;;16.00;99.90;;;;;;5078800;28;20037;-87
2023/09/29 00:17:44;;;;;;;14.45;4.13;;;16.10;99.90;;;;;;5061879;28;20105;-86
2023/09/29 00:20:23;;;;;;;13.77;4.43;;;16.10;99.90;;;;;;5093931;28;20093;-86
2023/09/29 00:22:50;;;;;;;12.50;4.03;;;16.10;99.90;;;;;;5061748;28;20748;-86
2023/09/29 00:25:15;;;;;;;14.50;4.10;;;16.10;99.90;;;;;;5077068;28;20036;-86
2023/09/29 00:27:41;;;;;;;12.85;4.50;;;16.10;99.90;;;;;;5061783;28;20044;-86
2023/09/29 00:30:09;;;;;;;18.23;5.00;;;16.00;99.90;;;;;;5077851;28;20373;-86
2023/09/29 00:32:35;;;;;;;18.83;4.38;;;16.20;99.90;;;;;;5061567;28;20127;-86
2023/09/29 00:35:01;;;;;;;15.63;4.50;;;16.20;99.90;;;;;;5059967;28;20447;-85
2023/09/29 00:37:26;;;;;;;19.88;5.05;;;16.20;99.90;;;;;;5078117;28;20036;-85
2023/09/29 00:39:52;;;;;;;12.98;4.85;;;16.10;99.90;;;;;;5060797;28;20404;-86
2023/09/29 00:42:18;;;;;;;14.80;4.82;;;16.10;99.90;;;;;;5061523;28;20045;-86
2023/09/29 00:44:44;;;;;;;15.23;4.18;;;16.10;99.90;;;;;;5059025;28;20047;-86
2023/09/29 00:47:11;;;;;;;12.40;4.78;;;16.20;99.90;;;;;;5077482;28;20040;-86
2023/09/29 00:49:37;;;;;;;12.85;4.50;;;16.20;99.90;;;;;;5061908;28;20032;-87
2023/09/29 00:52:03;;;;;;;16.33;4.63;;;16.10;99.90;;;;;;5078258;28;20037;-86
2023/09/29 00:54:32;;;;;;;16.75;5.13;;;16.20;99.90;;;;;;5076059;28;20036;-86
2023/09/29 00:56:59;;;;;;;17.08;5.10;;;16.20;99.90;;;;;;5061319;28;20060;-86
2023/09/29 00:59:31;;;;;;;17.35;5.25;;;16.20;99.90;;;;;;5060800;28;20051;-86
2023/09/29 01:01:57;;;;;;;13.93;4.57;;;16.20;99.90;;;;;;5061350;28;20048;-86
2023/09/29 01:04:23;;;;;;;17.20;4.57;;;16.20;99.90;;;;;;5059652;28;20029;-85
2023/09/29 01:06:50;;;;;;;17.08;5.25;;;16.10;99.90;;;;;;5061506;28;20044;-86
2023/09/29 01:09:16;;;;;;;13.40;4.70;;;16.20;99.90;;;;;;5077959;28;20123;-86
2023/09/29 01:11:43;;;;;;;15.80;4.72;;;16.20;99.90;;;;;;5077132;28;20040;-85
2023/09/29 01:14:11;;;;;;;16.33;4.72;;;16.10;99.90;;;;;;5058091;28;20040;-85
2023/09/29 01:16:38;;;;;;;16.42;5.00;;;16.10;99.90;;;;;;5074519;28;20045;-86
2023/09/29 01:19:11;;;;;;;16.65;4.70;;;16.20;99.90;;;;;;5074686;28;20043;-85
2023/09/29 01:21:40;;;;;;;21.13;5.40;;;16.30;99.90;;;;;;5058001;28;20090;-86
2023/09/29 01:24:08;;;;;;;12.82;4.65;;;16.20;99.90;;;;;;5057315;28;20047;-85
2023/09/29 01:26:34;;;;;;;16.65;5.13;;;16.10;99.90;;;;;;5056822;28;20507;-86
2023/09/29 01:28:59;;;;;;;15.82;4.95;;;16.10;99.90;;;;;;5053935;28;20029;-86
2023/09/29 01:31:25;;;;;;;16.35;5.07;;;16.10;99.90;;;;;;5071101;28;20045;-85
2023/09/29 01:33:50;;;;;;;18.13;5.38;;;16.10;99.90;;;;;;5054387;28;20413;-86
2023/09/29 01:36:16;;;;;;;16.40;5.13;;;16.10;99.90;;;;;;5060829;28;20413;-85
2023/09/29 01:38:42;;;;;;;22.17;5.50;;;16.10;99.90;;;;;;5055152;28;20041;-85
2023/09/29 01:41:08;;;;;;;16.88;4.75;;;16.10;99.90;;;;;;5049930;28;20494;-85
2023/09/29 01:43:34;;;;;;;16.77;4.97;;;16.10;99.90;;;;;;5071084;28;20071;-86
2023/09/29 01:46:01;;;;;;;14.27;4.68;;;16.10;99.90;;;;;;5056941;28;20063;-86
2023/09/29 01:48:26;;;;;;;12.63;5.10;;;16.10;99.90;;;;;;5071710;28;20484;-85
2023/09/29 01:50:52;;;;;;;18.33;5.65;;;16.20;99.90;;;;;;5057760;28;20046;-86
2023/09/29 01:53:17;;;;;;;15.32;4.53;;;16.20;99.90;;;;;;5072754;28;20117;-86
2023/09/29 01:55:43;;;;;;;13.88;4.97;;;16.20;99.90;;;;;;5073817;28;20102;-86
2023/09/29 01:58:09;;;;;;;16.38;5.20;;;16.10;99.90;;;;;;5055977;28;20098;-86
2023/09/29 02:00:35;;;;;;;15.05;4.88;;;16.10;99.90;;;;;;5057270;28;20083;-85
2023/09/29 02:03:02;;;;;;;13.15;4.75;;;16.10;99.90;;;;;;5057393;28;20083;-86
2023/09/29 02:05:28;;;;;;;15.90;5.32;;;16.20;99.90;;;;;;5073241;28;20064;-86
2023/09/29 02:07:54;;;;;;;14.80;4.90;;;16.40;99.90;;;;;;5062822;28;20066;-86
2023/09/29 02:10:21;;;;;;;14.52;4.60;;;16.40;99.90;;;;;;5072487;28;20492;-86
2023/09/29 02:12:57;;;;;;;13.85;5.07;;;16.30;99.90;;;;;;5055980;28;20489;-86
2023/09/29 02:15:24;;;;;;;14.88;5.18;;;16.20;99.90;;;;;;5053932;28;20436;-86
2023/09/29 02:17:50;;;;;;;14.63;4.90;;;16.20;99.90;;;;;;5054173;28;20127;-86
2023/09/29 02:20:21;;;;;;;12.20;4.47;;;16.20;99.90;;;;;;5067945;28;20472;-87
2023/09/29 02:22:48;;;;;;;13.20;4.57;;;16.30;99.90;;;;;;5053967;28;20444;-87
2023/09/29 02:25:15;;;;;;;14.65;4.88;;;16.20;99.90;;;;;;5077927;28;20040;-87
2023/09/29 02:27:41;;;;;;;13.75;4.88;;;16.30;99.90;;;;;;5075774;28;20447;-86
2023/09/29 02:30:09;;;;;;;16.83;4.85;;;16.30;99.90;;;;;;5060105;28;20041;-86
2023/09/29 02:32:38;;;;;;;17.42;5.07;;;16.40;99.90;;;;;;5073861;28;20396;-87
2023/09/29 02:35:04;;;;;;;15.23;4.80;;;16.40;99.90;;;;;;5051618;28;20040;-87
2023/09/29 02:37:30;;;;;;;17.58;5.25;;;16.20;99.90;;;;;;5073127;28;20041;-86
2023/09/29 02:39:55;;;;;;;15.38;4.78;;;16.10;99.90;;;;;;5072241;28;20480;-86
2023/09/29 02:42:22;;;;;;;13.50;4.50;;;16.10;99.90;;;;;;5072124;28;20049;-86
2023/09/29 02:44:47;;;;;;;15.75;4.60;;;16.10;99.90;;;;;;5053934;28;20094;-87
2023/09/29 02:47:14;;;;;;;13.98;4.78;;;16.10;99.90;;;;;;5063456;28;20037;-87
2023/09/29 02:49:40;;;;;;;11.95;4.57;;;16.10;99.90;;;;;;5040573;28;20086;-87
2023/09/29 02:52:06;;;;;;;11.80;4.78;;;16.10;99.90;;;;;;5073197;28;20045;-87
2023/09/29 02:54:32;;;;;;;13.73;4.30;;;16.10;99.90;;;;;;5055526;28;20040;-86
2023/09/29 02:56:58;;;;;;;15.35;4.90;;;16.10;99.90;;;;;;5057461;28;20052;-86
2023/09/29 02:59:24;;;;;;;13.70;4.78;;;16.30;99.90;;;;;;5061016;28;20051;-87
2023/09/29 03:01:50;;;;;;;16.77;4.93;;;16.40;99.90;;;;;;5055039;28;20036;-86
2023/09/29 03:04:16;;;;;;;18.13;5.03;;;16.40;99.90;;;;;;5056282;28;20062;-86
2023/09/29 03:06:42;;;;;;;16.98;5.13;;;16.40;99.90;;;;;;5072088;28;20056;-87
2023/09/29 03:09:10;;;;;;;15.70;4.68;;;16.30;99.90;;;;;;5072751;28;20044;-86
2023/09/29 03:11:40;;;;;;;13.68;4.22;;;16.30;99.90;;;;;;5070447;28;20043;-86
2023/09/29 03:14:06;;;;;;;12.93;4.25;;;16.20;99.90;;;;;;5089608;28;20047;-86
2023/09/29 03:16:34;;;;;;;13.55;4.32;;;16.30;99.90;;;;;;5069721;28;20097;-86
2023/09/29 03:19:00;;;;;;;13.77;4.63;;;16.40;99.90;;;;;;5072527;28;20071;-86
2023/09/29 03:21:25;;;;;;;13.65;3.67;;;16.30;99.90;;;;;;5072602;28;20071;-87
2023/09/29 03:23:51;;;;;;;16.38;5.10;;;16.40;99.90;;;;;;5071907;28;20056;-86
2023/09/29 03:26:17;;;;;;;16.08;5.45;;;16.50;99.90;;;;;;5036191;28;20119;-87
2023/09/29 03:28:43;;;;;;;17.52;4.68;;;16.60;99.90;;;;;;5053419;28;20044;-86
2023/09/29 03:31:09;;;;;;;15.75;4.53;;;16.60;99.90;;;;;;5035692;28;20041;-86
2023/09/29 03:33:35;;;;;;;11.80;4.30;;;16.40;99.90;;;;;;5067117;28;20048;-86
2023/09/29 03:36:01;;;;;;;13.90;4.45;;;16.40;99.90;;;;;;5055545;28;20043;-86
2023/09/29 03:38:27;;;;;;;15.30;4.40;;;16.40;99.90;;;;;;5054516;28;20366;-86
2023/09/29 03:40:52;;;;;;;12.10;4.20;;;16.30;99.90;;;;;;5072051;28;20044;-85
2023/09/29 03:43:19;;;;;;;12.77;4.63;;;16.30;99.90;;;;;;5071047;28;20422;-86
2023/09/29 03:45:46;;;;;;;14.65;5.25;;;16.30;99.90;;;;;;5088959;28;20036;-86
2023/09/29 03:48:12;;;;;;;12.43;4.10;;;16.40;99.90;;;;;;5060982;28;20166;-86
2023/09/29 03:50:40;;;;;;;14.18;4.45;;;16.40;99.90;;;;;;5072534;28;20086;-86
2023/09/29 03:53:05;;;;;;;13.85;4.68;;;16.40;99.90;;;;;;5072099;28;20041;-86
2023/09/29 03:55:31;;;;;;;17.55;4.53;;;16.40;99.90;;;;;;5054229;28;20058;-86
2023/09/29 03:57:57;;;;;;;16.92;5.05;;;16.40;99.90;;;;;;5071960;28;20080;-86
2023/09/29 04:00:22;;;;;;;13.70;4.45;;;16.30;99.90;;;;;;5053388;28;20040;-86
2023/09/29 04:02:51;;;;;;;15.27;5.22;;;16.40;99.90;;;;;;5071019;28;20037;-86
2023/09/29 04:05:18;;;;;;;13.30;4.65;;;16.40;99.90;;;;;;5072212;28;20105;-86
2023/09/29 04:07:44;;;;;;;16.52;4.65;;;16.40;99.90;;;;;;5066930;28;20128;-85
2023/09/29 04:10:11;;;;;;;12.15;4.35;;;16.40;99.90;;;;;;5054090;28;20094;-86
2023/09/29 04:12:40;;;;;;;14.55;4.80;;;16.40;99.90;;;;;;5070654;28;20051;-86
2023/09/29 04:15:07;;;;;;;14.02;5.00;;;16.40;99.90;;;;;;5055112;28;20040;-86
2023/09/29 04:17:32;;;;;;;18.20;5.13;;;16.30;99.90;;;;;;5069512;28;20052;-86
2023/09/29 04:19:58;;;;;;;17.15;5.03;;;16.40;99.90;;;;;;5070322;28;20044;-86
2023/09/29 04:22:24;;;;;;;11.88;4.40;;;16.40;99.90;;;;;;5053290;28;20037;-85
2023/09/29 04:24:50;;;;;;;12.95;5.07;;;16.30;99.90;;;;;;5055507;28;20047;-86
2023/09/29 04:27:16;;;;;;;11.55;5.03;;;16.40;99.90;;;;;;5053591;28;20048;-86
2023/09/29 04:29:41;;;;;;;15.35;5.13;;;16.50;99.90;;;;;;5054331;28;20033;-86
2023/09/29 04:32:07;;;;;;;17.40;5.85;;;16.50;99.90;;;;;;5053081;28;20381;-85
2023/09/29 04:34:33;;;;;;;12.27;4.78;;;16.50;99.90;;;;;;5053903;28;20393;-86
2023/09/29 04:36:59;;;;;;;14.77;4.90;;;16.50;99.90;;;;;;5069861;28;20178;-86
2023/09/29 04:39:24;;;;;;;13.25;4.95;;;16.60;99.90;;;;;;5054027;28;20108;-86
2023/09/29 04:41:50;;;;;;;15.48;5.28;;;16.50;99.90;;;;;;5052623;28;20044;-85
2023/09/29 04:44:16;;;;;;;14.70;5.60;;;16.50;99.90;;;;;;5069973;28;20028;-87
2023/09/29 04:46:42;;;;;;;16.08;6.55;;;16.50;99.90;;;;;;5048245;28;20708;-86
2023/09/29 04:49:07;;;;;;;13.88;5.60;;;16.50;99.90;;;;;;5068699;28;20039;-86
2023/09/29 04:51:33;;;;;;;15.48;4.90;;;16.60;99.90;;;;;;5073053;28;20048;-86
2023/09/29 04:53:59;;;;;;;13.40;5.53;;;16.60;99.90;;;;;;5056535;28;20071;-86
2023/09/29 04:56:25;;;;;;;12.38;5.50;;;16.60;99.90;;;;;;5073137;28;20062;-86
2023/09/29 04:58:50;;;;;;;13.55;5.70;;;16.60;99.90;;;;;;5055142;28;20411;-86
2023/09/29 05:01:20;;;;;;;15.77;5.25;;;16.60;99.90;;;;;;5056820;28;20048;-85
2023/09/29 05:03:50;;;;;;;14.60;5.10;;;16.60;99.90;;;;;;5071855;28;20397;-85
2023/09/29 05:06:16;;;;;;;13.27;5.25;;;16.60;99.90;;;;;;5055992;28;20035;-86
2023/09/29 05:08:42;;;;;;;15.02;5.90;;;16.60;99.90;;;;;;5054936;28;20435;-86
2023/09/29 05:11:08;;;;;;;13.93;5.72;;;16.70;99.90;;;;;;5057217;28;20086;-85
2023/09/29 05:13:34;;;;;;;17.17;6.38;;;16.70;99.90;;;;;;5055285;28;20068;-86
2023/09/29 05:16:00;;;;;;;18.20;6.00;;;16.70;99.90;;;;;;5069794;28;20123;-85
2023/09/29 05:18:25;;;;;;;14.18;5.63;;;16.70;99.90;;;;;;5042603;28;20760;-85
2023/09/29 05:20:51;;;;;;;17.13;6.15;;;16.70;99.90;;;;;;5089061;28;20038;-86
2023/09/29 05:23:17;;;;;;;13.70;5.70;;;16.70;99.90;;;;;;5072314;28;20032;-85
2023/09/29 05:25:47;;;;;;;14.85;6.40;;;16.80;99.90;;;;;;5072061;28;20033;-86
2023/09/29 05:28:13;;;;;;;14.93;5.47;;;16.80;99.90;;;;;;5061846;28;20087;-85
2023/09/29 05:30:39;;;;;;;19.25;6.00;;;16.80;99.90;;;;;;5056976;28;20051;-85
2023/09/29 05:33:05;;;;;;;17.23;6.38;;;16.80;99.90;;;;;;5055952;28;20511;-85
2023/09/29 05:35:31;;;;;;;16.25;5.60;;;16.80;99.90;;;;;;5051073;28;20036;-85
2023/09/29 05:37:57;;;;;;;15.95;5.90;;;16.80;99.90;;;;;;5070117;28;20065;-84
2023/09/29 05:40:22;;;;;;;15.00;7.20;;;16.80;99.90;;;;;;5043229;28;20066;-85
2023/09/29 05:42:48;;;;;;;17.30;6.13;;;16.80;99.90;;;;;;5055026;28;20044;-84
2023/09/29 05:45:14;;;;;;;13.35;6.00;;;16.80;99.90;;;;;;5072795;28;20036;-85
2023/09/29 05:47:39;;;;;;;13.05;6.45;;;16.80;99.90;;;;;;5067287;28;20485;-85
2023/09/29 05:50:05;;;;;;;13.52;5.78;;;16.80;99.90;;;;;;5071237;28;20508;-84
2023/09/29 05:52:32;;;;;;;14.32;5.95;;;16.80;99.90;;;;;;5071270;28;20049;-84
2023/09/29 05:54:57;;;;;;;11.70;6.45;;;16.80;99.90;;;;;;5072255;28;20047;-84
2023/09/29 05:57:23;;;;;;;13.70;5.80;;;17.00;99.90;;;;;;5056413;28;20045;-84
2023/09/29 05:59:49;;;;;;;12.48;5.95;;;16.80;99.90;;;;;;5072937;28;20075;-85
2023/09/29 06:02:14;;;;;;;14.48;6.10;;;16.80;99.90;;;;;;5070373;28;20040;-85
2023/09/29 06:04:40;;;;;;;13.13;6.25;;;16.70;99.90;;;;;;5072168;28;20037;-85
2023/09/29 06:07:05;;;;;;;14.02;6.15;;;16.70;99.90;;;;;;5073739;28;20036;-84
2023/09/29 06:09:31;;;;;;;15.45;6.45;;;16.70;99.90;;;;;;5053258;28;20366;-84
2023/09/29 06:11:56;;;;;;;14.52;7.15;;;16.70;99.90;;;;;;5052966;28;20040;-84
2023/09/29 06:14:23;;;;;;;16.08;6.25;;;16.70;99.90;;;;;;5056406;28;20040;-84
2023/09/29 06:16:48;;;;;;;13.95;6.20;;;16.70;99.90;;;;;;5069336;28;20056;-84
2023/09/29 06:19:15;;;;;;;11.63;5.72;;;16.80;99.90;;;;;;5072644;28;20040;-84
2023/09/29 06:21:40;;;;;;;13.90;6.43;;;16.80;99.90;;;;;;5052722;28;20033;-84
2023/09/29 06:24:06;;;;;;;13.65;5.95;;;16.80;99.90;;;;;;5057462;28;20531;-83
2023/09/29 06:26:31;;;;;;;11.93;5.60;;;16.70;99.90;;;;;;5052529;28;20128;-84
2023/09/29 06:28:57;;;;;;;12.02;5.32;;;16.90;99.90;;;;;;5072537;28;20040;-84
2023/09/29 06:31:22;;;;;;;11.40;4.38;;;16.90;99.90;;;;;;5051852;28;20032;-85
2023/09/29 06:33:48;;;;;;;13.27;5.53;;;16.90;99.90;;;;;;5053350;28;20048;-84
2023/09/29 06:36:14;;;;;;;10.63;5.03;;;16.90;99.90;;;;;;5070619;28;20037;-84
2023/09/29 06:38:40;;;;;;;9.90;4.80;;;17.00;99.90;;;;;;5072026;28;20135;-83
2023/09/29 06:41:06;;;;;;;12.32;4.97;;;16.90;99.90;;;;;;5052524;28;20622;-84
2023/09/29 06:43:32;;;;;;;12.85;5.13;;;17.00;99.90;;;;;;5071430;28;20037;-83
2023/09/29 06:45:58;;;;;;;10.55;4.05;;;17.00;99.90;;;;;;5053785;28;20110;-84
2023/09/29 06:48:23;;;;;;;12.13;5.03;;;17.00;99.90;;;;;;5041939;28;20366;-84
2023/09/29 06:50:49;;;;;;;12.85;5.43;;;17.00;99.90;;;;;;5077993;28;20042;-84
2023/09/29 06:53:15;;;;;;;10.40;4.85;;;17.00;99.90;;;;;;5045786;28;20064;-83
2023/09/29 06:55:40;;;;;;;11.20;4.82;;;17.00;99.90;;;;;;5055041;28;20509;-83
2023/09/29 06:58:06;;;;;;;10.65;4.70;;;17.00;99.90;;;;;;5052046;28;20048;-83
2023/09/29 07:00:31;;;;;;;12.73;5.68;;;17.00;99.90;;;;;;5054992;28;20125;-83
2023/09/29 07:02:57;;;;;;;10.70;4.85;;;17.00;99.90;;;;;;5048880;28;20115;-83
2023/09/29 07:05:22;;;;;;;12.30;5.20;;;17.00;99.90;;;;;;5069421;28;20544;-83
2023/09/29 07:07:48;;;;;;;10.23;4.80;;;17.00;99.90;;;;;;5068124;28;20381;-83
2023/09/29 07:10:14;;;;;;;11.75;4.80;;;17.00;99.90;;;;;;5053125;28;20075;-83
2023/09/29 07:12:39;;;;;;;11.38;5.40;;;17.10;99.90;;;;;;5053456;28;20485;-84
2023/09/29 07:15:06;;;;;;;10.75;4.25;;;17.10;99.90;;;;;;5070174;28;20087;-82
2023/09/29 07:17:32;;;;;;;11.38;4.57;;;17.10;99.90;;;;;;5068126;28;20619;-82
2023/09/29 07:19:58;;;;;;;10.48;4.47;;;17.10;99.90;;;;;;5071416;28;20111;-84
2023/09/29 07:22:23;;;;;;;10.88;4.50;;;17.10;99.90;;;;;;5052295;28;20131;-84
2023/09/29 07:24:50;;;;;;;12.25;4.60;;;17.30;99.90;;;;;;5067231;28;20040;-84
2023/09/29 07:27:17;;;;;;;9.75;4.13;;;17.30;99.90;;;;;;5054456;28;20044;-84
2023/09/29 07:29:43;;;;;;;9.88;3.95;;;17.30;99.90;;;;;;5064214;28;20079;-83
2023/09/29 07:32:11;;;;;;;10.82;3.92;;;17.40;99.90;;;;;;5053090;28;20099;-84
2023/09/29 07:34:36;;;;;;;7.55;3.80;;;17.40;99.90;;;;;;5055229;28;20508;-84
2023/09/29 07:37:02;;;;;;;8.02;3.53;;;17.50;99.90;;;;;;5069496;28;20045;-85
2023/09/29 07:39:27;;;;;;;9.23;3.80;;;17.50;99.90;;;;;;5049121;28;20044;-84
2023/09/29 07:41:53;;;;;;;19.23;5.57;;;17.60;99.90;;;;;;5068365;28;20546;-86
2023/09/29 07:44:18;;;;;;;10.05;4.40;;;17.60;99.90;;;;;;5070807;28;20043;-84
2023/09/29 07:46:46;;;;;;;8.70;3.80;;;17.60;99.90;;;;;;5061464;28;20037;-85
2023/09/29 07:49:14;;;;;;;11.23;4.07;;;17.70;99.90;;;;;;5065623;28;20040;-85
2023/09/29 07:51:40;;;;;;;9.55;3.95;;;17.70;99.90;;;;;;5054865;28;20044;-84
2023/09/29 07:54:06;;;;;;;9.13;4.10;;;17.80;99.90;;;;;;5070935;28;20037;-88
2023/09/29 07:56:32;;;;;;;12.30;4.45;;;17.80;99.90;;;;;;5057842;28;20128;-84
2023/09/29 07:58:58;;;;;;;10.15;4.13;;;17.80;99.90;;;;;;5067398;28;20052;-84
2023/09/29 08:01:23;;;;;;;9.57;4.35;;;17.80;99.90;;;;;;5069909;28;20094;-84
2023/09/29 08:03:49;;;;;;;11.18;4.05;;;17.90;99.90;;;;;;5053793;28;20105;-84
2023/09/29 08:06:16;;;;;;;6.95;3.83;;;17.90;99.90;;;;;;5053843;28;20036;-84
2023/09/29 08:08:41;;;;;;;8.73;4.03;;;17.90;99.90;;;;;;5047460;28;20044;-84
2023/09/29 08:11:07;;;;;;;9.18;4.05;;;17.90;99.90;;;;;;5052938;28;20044;-84
2023/09/29 08:13:34;;;;;;;12.20;4.38;;;18.00;99.90;;;;;;5042856;28;20405;-84
2023/09/29 08:16:00;;;;;;;7.72;3.33;;;18.10;99.90;;;;;;5067799;28;20037;-84
2023/09/29 08:18:26;;;;;;;9.10;4.10;;;18.20;99.90;;;;;;5065282;28;20040;-84
2023/09/29 08:20:55;;;;;;;8.00;3.75;;;18.20;99.90;;;;;;5053419;28;20059;-84
2023/09/29 08:23:21;;;;;;;12.63;3.80;;;18.30;99.90;;;;;;5053766;28;20093;-84
2023/09/29 08:25:48;;;;;;;9.90;4.07;;;18.40;99.90;;;;;;5056524;28;20103;-84
2023/09/29 08:28:13;;;;;;;10.32;3.60;;;18.50;99.90;;;;;;5057467;28;20032;-84
2023/09/29 08:30:40;;;;;;;10.25;3.42;;;18.50;99.90;;;;;;5058241;28;20040;-84
2023/09/29 08:33:05;;;;;;;7.65;3.63;;;18.60;99.90;;;;;;5056822;28;20402;-84
2023/09/29 08:35:31;;;;;;;8.57;3.75;;;18.70;99.90;;;;;;5073487;28;20045;-84
2023/09/29 08:37:57;;;;;;;9.43;3.75;;;18.80;99.90;;;;;;5090104;28;20044;-84
2023/09/29 08:40:22;;;;;;;10.48;3.63;;;18.80;99.90;;;;;;5075508;28;20040;-84
2023/09/29 08:42:51;;;;;;;7.40;3.42;;;18.90;99.90;;;;;;5056023;28;20101;-84
2023/09/29 08:45:18;;;;;;;8.70;3.78;;;19.00;99.90;;;;;;5053159;28;20033;-84
2023/09/29 08:47:49;;;;;;;6.53;3.00;;;19.10;99.90;;;;;;5057600;28;20400;-83
2023/09/29 08:50:16;;;;;;;8.63;3.50;;;19.10;99.90;;;;;;5055367;28;20044;-84
2023/09/29 08:52:47;;;;;;;7.55;3.58;;;19.20;99.90;;;;;;5073529;28;20119;-84
2023/09/29 08:55:13;;;;;;;10.23;3.70;;;19.30;99.90;;;;;;5072678;28;20131;-83
2023/09/29 08:57:41;;;;;;;7.90;3.72;;;19.30;99.90;;;;;;5073378;28;20377;-83
2023/09/29 09:00:12;;;;;;;7.80;3.67;;;19.30;99.90;;;;;;5061095;28;20083;-84
2023/09/29 09:02:41;;;;;;;8.20;3.15;;;19.40;99.90;;;;;;5074893;28;20044;-84
2023/09/29 09:05:11;;;;;;;7.68;3.10;;;19.50;99.90;;;;;;5067563;28;20037;-84
2023/09/29 09:07:38;;;;;;;8.80;3.60;;;19.60;99.90;;;;;;5072547;28;20064;-84
2023/09/29 09:10:04;;;;;;;7.07;3.30;;;19.60;99.90;;;;;;5056034;28;20033;-83
2023/09/29 09:12:34;;;;;;;7.43;3.20;;;19.70;99.90;;;;;;5068121;28;20123;-83
2023/09/29 09:15:00;;;;;;;7.50;2.92;;;19.70;99.90;;;;;;5047571;28;20516;-83
2023/09/29 09:17:27;;;;;;;8.77;3.15;;;19.80;99.90;;;;;;5073912;28;20036;-83
2023/09/29 09:19:54;;;;;;;6.90;3.05;;;19.80;99.90;;;;;;5072403;28;20508;-83
2023/09/29 09:22:25;;;;;;;7.20;3.30;;;19.90;99.90;;;;;;5071140;28;20048;-83
2023/09/29 09:25:01;;;;;;;;;;;19.80;99.90;;;;;;5054408;28;20036;-83
2023/09/29 09:27:37;;;;;;;6.78;2.78;;;19.80;99.90;;;;;;5084573;28;19921;-83
2023/09/29 09:30:03;;;;;;;7.45;3.45;;;19.90;99.90;;;;;;5073595;28;20047;-83
2023/09/29 09:32:29;;;;;;;7.00;3.58;;;19.90;99.90;;;;;;5057690;28;20054;-84
2023/09/29 09:34:55;;;;;;;7.75;3.85;;;19.90;99.90;;;;;;5054149;28;20052;-83
2023/09/29 09:37:24;;;;;;;10.57;3.40;;;19.90;99.90;;;;;;5053279;28;20513;-83
2023/09/29 09:39:53;;;;;;;6.78;3.10;;;20.00;99.90;;;;;;5071392;28;20036;-83
2023/09/29 09:42:24;;;;;;;7.70;3.88;;;20.00;99.90;;;;;;5056920;28;20040;-83
2023/09/29 09:44:50;;;;;;;5.83;2.63;;;20.00;99.90;;;;;;5053073;28;20040;-83
2023/09/29 09:47:18;;;;;;;8.95;3.95;;;20.00;99.90;;;;;;5074173;28;20892;-83
2023/09/29 09:49:48;;;;;;;8.75;3.08;;;20.10;99.90;;;;;;5056803;28;20500;-83
2023/09/29 09:52:23;;;;;;;7.50;2.90;;;20.10;99.90;;;;;;5056560;28;20081;-83
2023/09/29 09:54:52;;;;;;;8.18;3.45;;;20.20;99.90;;;;;;5072153;28;20052;-84
2023/09/29 09:57:23;;;;;;;9.73;3.10;;;20.20;99.90;;;;;;5056539;28;20128;-83
2023/09/29 09:59:51;;;;;;;8.70;3.10;;;20.30;99.90;;;;;;5055127;28;20048;-84
2023/09/29 10:02:19;;;;;;;8.18;3.25;;;20.40;99.90;;;;;;5078604;28;20045;-84
2023/09/29 10:04:47;;;;;;;8.57;2.67;;;20.40;99.90;;;;;;5047488;28;20139;-84
2023/09/29 10:07:14;;;;;;;7.60;2.92;;;20.40;99.90;;;;;;5055623;28;20541;-84
2023/09/29 10:09:48;;;;;;;6.60;3.13;;;20.40;99.90;;;;;;5048225;28;20040;-84
2023/09/29 10:12:28;;;;;;;7.68;3.28;;;20.40;99.90;;;;;;5051376;28;20037;-84
2023/09/29 10:14:58;;;;;;;7.60;3.45;;;20.40;99.90;;;;;;5072422;28;20033;-84
2023/09/29 10:17:25;;;;;;;7.90;3.47;;;20.40;99.90;;;;;;5057071;28;20396;-84
2023/09/29 10:19:51;;;;;;;8.05;3.28;;;20.40;99.90;;;;;;5068805;28;20097;-84
2023/09/29 10:22:25;;;;;;;7.80;3.55;;;20.40;99.90;;;;;;5070293;28;20110;-83
2023/09/29 10:24:56;;;;;;;10.55;3.80;;;20.50;99.90;;;;;;5076014;28;20033;-83
2023/09/29 10:27:33;;;;;;;7.85;3.30;;;20.40;99.90;;;;;;5057084;28;20045;-84
2023/09/29 10:30:15;;;;;;;8.35;3.10;;;20.30;99.90;;;;;;5067670;28;20037;-84
2023/09/29 10:32:45;;;;;;;6.60;3.00;;;20.30;99.90;;;;;;5055433;28;20082;-83
2023/09/29 10:35:18;;;;;;;8.88;2.95;;;20.30;99.90;;;;;;5055379;28;20044;-83
2023/09/29 10:37:47;;;;;;;9.23;3.60;;;20.20;99.90;;;;;;5054303;28;20042;-83
2023/09/29 10:40:32;;;;;;;8.25;3.47;;;20.20;99.90;;;;;;5051474;28;20033;-83
2023/09/29 10:43:02;;;;;;;9.55;3.13;;;20.20;99.90;;;;;;5051779;28;20036;-84
2023/09/29 10:45:36;;;;;;;7.32;3.22;;;20.20;99.90;;;;;;5049281;28;20044;-83
2023/09/29 10:48:06;;;;;;;7.28;3.20;;;20.10;99.90;;;;;;5058871;28;20032;-83
2023/09/29 10:50:46;;;;;;;7.75;3.42;;;20.10;99.90;;;;;;5080033;28;20103;-83
2023/09/29 10:53:12;;;;;;;10.15;3.97;;;20.00;99.90;;;;;;5057005;28;20404;-83
2023/09/29 10:55:47;;;;;;;6.85;3.20;;;20.10;99.90;;;;;;5058547;28;20048;-83
2023/09/29 10:58:14;;;;;;;6.28;3.08;;;20.10;99.90;;;;;;5055352;28;20111;-83
2023/09/29 11:00:41;;;;;;;7.45;3.53;;;20.00;99.90;;;;;;5055289;28;20040;-83
2023/09/29 11:03:13;;;;;;;8.35;3.83;;;20.00;99.90;;;;;;5065371;28;20035;-83
2023/09/29 11:05:55;;;;;;;8.70;3.67;;;20.00;99.90;;;;;;5053521;28;20082;-83
2023/09/29 11:08:29;;;;;;;10.45;3.67;;;20.00;99.90;;;;;;5054393;28;20033;-83
2023/09/29 11:11:00;;;;;;;8.30;3.42;;;20.00;99.90;;;;;;5055281;28;20037;-83
2023/09/29 11:13:27;;;;;;;9.97;4.17;;;19.90;99.90;;;;;;5051915;28;20051;-83
2023/09/29 11:15:53;;;;;;;10.07;4.32;;;19.90;99.90;;;;;;5061591;28;20123;-83
2023/09/29 11:18:33;;;;;;;8.75;4.43;;;19.90;99.90;;;;;;5055490;28;20471;-83
2023/09/29 11:21:00;;;;;;;10.93;3.90;;;19.80;99.90;;;;;;5054457;28;20123;-83
2023/09/29 11:23:28;;;;;;;10.23;4.03;;;19.80;99.90;;;;;;5053286;28;20393;-83
2023/09/29 11:25:58;;;;;;;9.13;3.88;;;19.90;99.90;;;;;;5071471;28;20131;-83
2023/09/29 11:28:26;;;;;;;7.78;3.72;;;19.90;99.90;;;;;;5054505;28;20033;-83
2023/09/29 11:30:52;;;;;;;11.20;4.38;;;20.00;99.90;;;;;;5072570;28;20465;-83
2023/09/29 11:33:19;;;;;;;9.57;4.18;;;20.10;99.90;;;;;;5070920;28;20074;-83
2023/09/29 11:35:45;;;;;;;8.60;4.10;;;20.00;99.90;;;;;;5070601;28;20166;-83
2023/09/29 11:38:21;;;;;;;8.73;4.00;;;20.00;99.90;;;;;;5039967;28;20466;-83
2023/09/29 11:40:48;;;;;;;9.13;3.90;;;20.00;99.90;;;;;;5047707;28;20473;-83
2023/09/29 11:43:14;;;;;;;12.10;4.28;;;20.00;99.90;;;;;;5054942;28;20036;-83
2023/09/29 11:45:40;;;;;;;9.80;4.47;;;20.00;99.90;;;;;;5066940;28;20107;-83
2023/09/29 11:48:06;;;;;;;7.80;3.83;;;20.00;99.90;;;;;;5054910;28;20124;-83
2023/09/29 11:50:33;;;;;;;9.90;3.70;;;20.00;99.90;;;;;;5054836;28;20076;-84
2023/09/29 11:53:03;;;;;;;9.63;4.13;;;20.10;99.90;;;;;;5070757;28;20075;-83
2023/09/29 11:55:29;;;;;;;8.43;4.28;;;20.10;99.90;;;;;;5051566;28;20053;-81
2023/09/29 11:57:55;;;;;;;9.18;4.20;;;20.10;99.90;;;;;;5056727;28;20473;-81
2023/09/29 12:00:20;;;;;;;9.23;4.03;;;20.00;99.90;;;;;;5054121;28;20043;-81
2023/09/29 12:02:46;;;;;;;8.00;4.00;;;20.00;99.90;;;;;;5055529;28;20040;-81
2023/09/29 12:05:11;;;;;;;9.38;4.25;;;20.00;99.90;;;;;;5071052;28;20064;-81
2023/09/29 12:07:37;;;;;;;8.82;3.97;;;20.00;99.90;;;;;;5050921;28;20044;-81
2023/09/29 12:10:03;;;;;;;8.07;4.45;;;19.90;99.90;;;;;;5053175;28;20036;-81
2023/09/29 12:12:29;;;;;;;10.10;4.45;;;20.00;99.90;;;;;;5051081;28;20040;-82
2023/09/29 12:14:55;;;;;;;9.00;4.93;;;19.90;99.90;;;;;;5050371;28;20087;-81
2023/09/29 12:17:21;;;;;;;8.93;4.35;;;20.00;99.90;;;;;;5059591;28;20093;-81
2023/09/29 12:19:49;;;;;;;12.27;5.18;;;20.00;99.90;;;;;;5068614;28;20044;-81
2023/09/29 12:22:14;;;;;;;10.63;4.72;;;20.00;99.90;;;;;;5084972;28;20037;-81
2023/09/29 12:24:40;;;;;;;11.25;5.20;;;20.10;99.90;;;;;;5071050;28;20441;-81
2023/09/29 12:27:10;;;;;;;10.77;4.57;;;20.00;99.90;;;;;;5064694;28;20041;-82
2023/09/29 12:29:35;;;;;;;8.70;4.57;;;20.10;99.90;;;;;;5051308;28;20045;-81
2023/09/29 12:32:01;;;;;;;8.70;4.80;;;20.10;99.90;;;;;;5048790;28;20048;-81
2023/09/29 12:34:32;;;;;;;9.75;4.68;;;20.10;99.90;;;;;;5070424;28;20075;-81
2023/09/29 12:37:00;;;;;;;10.65;4.63;;;20.20;99.90;;;;;;5054933;28;20041;-81
2023/09/29 12:39:26;;;;;;;11.52;5.03;;;20.10;99.90;;;;;;5054062;28;20124;-81